Harmony, MN (55939)

2:40 PM CDT on September 17, 2014 (GMT -0500)
Preston | Change Station
CLOSE
Current Station
Airport
Location: Preston,
Elevation: 1276 ft
Nearby Weather Stations

Elev 1276 ft 43.68 °N, 92.17 °W | Updated 4 minutes ago

Clear
Clear
68 °F
Feels Like 68 °F
N
7
Wind Variable Wind from South

Today
High -- | Low -- °F
--% Chance of Precip.
Yesterday
High -- | Low -- °F
Precip. -- in
6:49 AM 7:14 PM
Waning Crescent, 33% visible
Pressure 29.97 in
Visibility 10.0 miles
Clouds Scattered Clouds 6500 ft
Scattered Clouds 7500 ft
Dew Point 56 °F
Humidity 66%
Rainfall 0.00 in
Snow Depth Not available.
UV 5 out of 12
Pollen 3.60 out of 12
Air Quality Not available.
Flu Activity Not available.
METAR KFKA 171936Z AUTO 19006KT 10SM SCT065 SCT075 20/13 A2997 RMK AO2 T01980132

More Conditions Fewer Conditions

Pressure 29.97 in
Visibility 10.0 miles
Clouds Scattered Clouds 6500 ft
Scattered Clouds 7500 ft
Dew Point 56 °F
Humidity 66%
Rainfall 0.00 in
Snow Depth Not available.
UV 5 out of 12
Pollen 3.60 out of 12
Air Quality Not available.
Flu Activity Not available.
METAR KFKA 171936Z AUTO 19006KT 10SM SCT065 SCT075 20/13 A2997 RMK AO2 T01980132

More Conditions Fewer Conditions

10-Day Weather Forecast

Almanac

Astronomy

Sep. 17, 2014 Rise Set
Actual Time 6:49 AM CDT 7:14 PM CDT
Civil Twilight 6:20 AM CDT 7:43 PM CDT
Nautical Twilight 5:47 AM CDT 8:16 PM CDT
Astronomical Twilight 5:12 AM CDT 8:51 PM CDT
Moon 12:42 AM CDT 3:32 PM CDT
Length of Visible Light 13h 22m
Length of Day
12h 24m
Tomorrow will be 2m 57s shorter.
Waning Crescent, 33% of the Moon is Illuminated
Today
Waning Crescent
Sep 24
New
Oct 1
First Quarter
Oct 8
Full
Oct 15
Last Quarter

Today's Extremes

State Highs State Lows

Community

WunderPhotos

Upload Photos

1,754,149 photos uploaded!

Nearby

Snow Depth

Station Depth Elevation
No new snow has been reported.

Earthquake Activity

City Distance Mag. Time & Date
No recent earthquake activity has been reported nearby.
Minimum magnitude displayed is 2.5.

Coastal Water Temperatures

Place Temperature
No Stations Reporting

Nearby Weather Stations